Homer, Nebraska
Current Conditions -  °F | °C
As of 3:52 PM on Thursday 27 Nov 2014 (Local Time) from KSUX Reporting Station
Clear Clear  
Wind Chill: -16°   Ceiling: Unl
Heat Index: -7°   Visibility: 10mi
Dew Point: -14°   Wind: 17mph
Humidity: 57%   Direction: 140°SE
Pressure: 30.32"   Gusts: NA
Location:  42.32°N, 96.49°W
Report Text: KSUX 272152Z AUTO 14015KT 10SM CLR M07/M14 A3032 RMK AO2 SLP288 T10721144
Loading
Personal Weather Stations






























Interactive Weather Map New forecast layout! Learn more

10-Day Weather Forecast

Advertisements
Track Severe Weather on mobile